createdAt,value
2019-02-14T00:00:41.901Z,-0.60
2019-02-14T00:03:11.894Z,-0.60
2019-02-14T00:05:41.013Z,-0.60
2019-02-14T00:08:10.175Z,-0.50
2019-02-14T00:10:39.936Z,-0.50
2019-02-14T00:13:10.480Z,-0.50
2019-02-14T00:15:39.589Z,-0.60
2019-02-14T00:18:08.689Z,-0.60
2019-02-14T00:20:37.925Z,-0.60
2019-02-14T00:23:08.061Z,-0.70
2019-02-14T00:25:37.138Z,-0.70
2019-02-14T00:28:06.248Z,-0.60
2019-02-14T00:30:35.453Z,-0.60
2019-02-14T00:33:05.254Z,-0.60
2019-02-14T00:35:34.804Z,-0.70
2019-02-14T00:38:04.268Z,-0.70
2019-02-14T00:40:33.357Z,-0.70
2019-02-14T00:43:02.857Z,-0.70
2019-02-14T00:45:31.920Z,-0.80
2019-02-14T00:48:02.878Z,-0.80
2019-02-14T00:50:32.033Z,-0.90
2019-02-14T00:53:01.154Z,-0.90
2019-02-14T00:55:30.287Z,-0.90
2019-02-14T00:57:59.363Z,-0.90
2019-02-14T01:00:28.473Z,-0.90
2019-02-14T01:02:58.510Z,-0.80
2019-02-14T01:05:33.395Z,-0.80
2019-02-14T01:07:58.701Z,-0.80
2019-02-14T01:10:28.609Z,-0.90
2019-02-14T01:12:57.691Z,-0.90
2019-02-14T01:15:27.113Z,-0.90
2019-02-14T01:17:56.228Z,-0.90
2019-02-14T01:20:25.781Z,-1.00
2019-02-14T01:22:55.561Z,-1.00
2019-02-14T01:25:25.739Z,-1.00
2019-02-14T01:27:55.152Z,-1.00
2019-02-14T01:30:24.625Z,-1.10
2019-02-14T01:32:53.742Z,-1.10
2019-02-14T01:35:22.817Z,-1.10
2019-02-14T01:37:52.792Z,-1.20
2019-02-14T01:40:22.265Z,-1.20
2019-02-14T01:42:53.251Z,-1.10
2019-02-14T01:45:22.392Z,-1.00
2019-02-14T01:47:52.365Z,-1.00
2019-02-14T01:50:21.453Z,-1.00
2019-02-14T01:52:50.561Z,-1.00
2019-02-14T01:55:19.877Z,-1.00
2019-02-14T01:57:49.355Z,-1.00
2019-02-14T02:00:18.781Z,-1.00
2019-02-14T02:02:48.189Z,-1.00
2019-02-14T02:05:17.878Z,-1.00
2019-02-14T02:07:46.928Z,-0.90
2019-02-14T02:10:16.440Z,-0.90
2019-02-14T02:12:45.956Z,-1.00
2019-02-14T02:15:15.293Z,-1.00
2019-02-14T02:17:44.390Z,-1.00
2019-02-14T02:20:13.605Z,-1.00
2019-02-14T02:22:42.732Z,-1.00
2019-02-14T02:25:12.108Z,-1.00
2019-02-14T02:27:41.232Z,-0.90
2019-02-14T02:30:12.545Z,-1.00
2019-02-14T02:32:41.764Z,-1.00
2019-02-14T02:35:11.013Z,-1.00
2019-02-14T02:37:40.818Z,-1.00
2019-02-14T02:40:10.269Z,-1.00
2019-02-14T02:42:39.434Z,-1.00
2019-02-14T02:45:10.627Z,-1.00
2019-02-14T02:47:39.752Z,-1.00
2019-02-14T02:50:11.937Z,-0.90
2019-02-14T02:52:41.085Z,-1.00
2019-02-14T02:55:11.001Z,-1.00
2019-02-14T02:57:40.069Z,-1.00
2019-02-14T03:00:12.801Z,-1.10
2019-02-14T03:02:41.926Z,-1.10
2019-02-14T03:05:12.478Z,-1.10
2019-02-14T03:07:41.656Z,-1.10
2019-02-14T03:10:11.812Z,-1.10
2019-02-14T03:12:41.349Z,-1.10
2019-02-14T03:15:11.662Z,-1.10
2019-02-14T03:17:41.055Z,-1.10
2019-02-14T03:20:10.989Z,-1.10
2019-02-14T03:22:40.116Z,-1.10
2019-02-14T03:25:12.406Z,-1.10
2019-02-14T03:27:41.526Z,-1.20
2019-02-14T03:30:11.520Z,-1.20
2019-02-14T03:32:40.584Z,-1.20
2019-02-14T03:35:10.460Z,-1.20
2019-02-14T03:37:39.669Z,-1.10
2019-02-14T03:40:09.931Z,-1.10
2019-02-14T03:42:39.031Z,-1.10
2019-02-14T03:45:11.111Z,-1.10
2019-02-14T03:47:40.647Z,-1.10
2019-02-14T03:50:09.852Z,-1.10
2019-02-14T03:52:39.315Z,-1.10
2019-02-14T03:55:09.020Z,-1.20
2019-02-14T03:57:38.295Z,-1.20
2019-02-14T04:00:10.422Z,-1.30
2019-02-14T04:02:40.431Z,-1.30
2019-02-14T04:05:09.785Z,-1.30
2019-02-14T04:07:39.036Z,-1.30
2019-02-14T04:10:10.096Z,-1.30
2019-02-14T04:12:39.185Z,-1.30
2019-02-14T04:15:11.966Z,-1.20
2019-02-14T04:17:41.048Z,-1.20
2019-02-14T04:20:10.312Z,-1.20
2019-02-14T04:22:39.974Z,-1.20
2019-02-14T04:25:09.574Z,-1.20
2019-02-14T04:27:39.097Z,-1.20
2019-02-14T04:30:09.746Z,-1.20
2019-02-14T04:32:38.857Z,-1.20
2019-02-14T04:35:08.134Z,-1.20
2019-02-14T04:37:37.298Z,-1.20
2019-02-14T04:40:08.461Z,-1.10
2019-02-14T04:42:37.598Z,-1.10
2019-02-14T04:45:08.062Z,-1.10
2019-02-14T04:47:37.844Z,-1.10
2019-02-14T04:50:07.501Z,-1.10
2019-02-14T04:52:36.617Z,-1.20
2019-02-14T04:55:06.222Z,-1.20
2019-02-14T04:57:35.333Z,-1.20
2019-02-14T05:00:04.953Z,-1.30
2019-02-14T05:02:34.312Z,-1.30
2019-02-14T05:05:03.566Z,-1.30
2019-02-14T05:07:32.713Z,-1.40
2019-02-14T05:10:01.919Z,-1.40
2019-02-14T05:12:32.821Z,-1.50
2019-02-14T05:15:01.929Z,-1.50
2019-02-14T05:17:33.855Z,-1.50
2019-02-14T05:20:03.496Z,-1.50
2019-02-14T05:22:32.573Z,-1.50
2019-02-14T05:25:01.741Z,-1.50
2019-02-14T05:27:30.846Z,-1.50
2019-02-14T05:30:00.025Z,-1.50
2019-02-14T05:32:29.123Z,-1.50
2019-02-14T05:34:58.616Z,-1.50
2019-02-14T05:37:27.990Z,-1.60
2019-02-14T05:39:57.621Z,-1.70
2019-02-14T05:42:26.692Z,-1.80
2019-02-14T05:44:56.442Z,-1.80
2019-02-14T05:47:25.566Z,-1.90
2019-02-14T05:49:55.172Z,-2.00
2019-02-14T05:52:24.284Z,-2.00
2019-02-14T05:54:53.842Z,-2.00
2019-02-14T05:57:23.208Z,-2.00
2019-02-14T05:59:52.429Z,-2.00
2019-02-14T06:02:21.838Z,-2.00
2019-02-14T06:04:51.924Z,-2.00
2019-02-14T06:07:21.021Z,-2.10
2019-02-14T06:09:50.118Z,-2.10
2019-02-14T06:12:19.281Z,-2.10
2019-02-14T06:14:48.361Z,-2.20
2019-02-14T06:17:17.456Z,-2.20
2019-02-14T06:19:46.681Z,-2.20
2019-02-14T06:22:15.810Z,-2.10
2019-02-14T06:24:44.949Z,-2.10
2019-02-14T06:27:15.404Z,-2.10
2019-02-14T06:29:44.493Z,-2.10
2019-02-14T06:32:13.608Z,-2.10
2019-02-14T06:34:42.777Z,-2.10
2019-02-14T06:37:11.899Z,-2.10
2019-02-14T06:39:41.059Z,-2.10
2019-02-14T06:42:11.534Z,-2.10
2019-02-14T06:44:40.908Z,-1.90
2019-02-14T06:47:10.390Z,-1.80
2019-02-14T06:49:39.819Z,-1.60
2019-02-14T06:52:09.200Z,-1.50
2019-02-14T06:54:38.310Z,-1.50
2019-02-14T06:57:08.048Z,-1.50
2019-02-14T06:59:37.494Z,-1.40
2019-02-14T07:02:07.432Z,-1.40
2019-02-14T07:04:36.637Z,-1.40
2019-02-14T07:07:05.768Z,-1.50
2019-02-14T07:09:34.859Z,-1.50
2019-02-14T07:12:03.997Z,-1.50
2019-02-14T07:14:33.089Z,-1.50
2019-02-14T07:17:02.178Z,-1.50
2019-02-14T07:19:31.598Z,-1.40
2019-02-14T07:22:00.788Z,-1.40
2019-02-14T07:24:29.927Z,-1.40
2019-02-14T07:26:59.149Z,-1.30
2019-02-14T07:29:28.308Z,-1.20
2019-02-14T07:31:57.706Z,-1.20
2019-02-14T07:34:26.793Z,-1.10
2019-02-14T07:36:56.045Z,-1.00
2019-02-14T07:39:25.224Z,-0.90
2019-02-14T07:41:54.303Z,-0.90
2019-02-14T07:44:23.421Z,-0.90
2019-02-14T07:46:52.495Z,-0.80
2019-02-14T07:49:21.612Z,-0.70
2019-02-14T07:51:50.690Z,-0.70
2019-02-14T07:54:19.891Z,-0.60
2019-02-14T07:56:49.001Z,-0.60
2019-02-14T07:59:18.092Z,-0.50
2019-02-14T08:01:47.562Z,-0.40
2019-02-14T08:04:17.010Z,-0.30
2019-02-14T08:06:48.233Z,-0.20
2019-02-14T08:09:17.749Z,-0.10
2019-02-14T08:11:47.877Z,0.00
2019-02-14T08:14:16.972Z,0.00
2019-02-14T08:16:46.466Z,0.10
2019-02-14T08:19:15.625Z,0.20
2019-02-14T08:21:44.692Z,0.30
2019-02-14T08:24:13.822Z,0.30
2019-02-14T08:26:43.308Z,0.40
2019-02-14T08:29:12.482Z,0.40
2019-02-14T08:31:41.548Z,0.50
2019-02-14T08:34:10.773Z,0.50
2019-02-14T08:36:40.195Z,0.50
2019-02-14T08:39:09.648Z,0.80
2019-02-14T08:41:38.700Z,1.00
2019-02-14T08:44:09.212Z,1.10
2019-02-14T08:46:39.337Z,1.30
2019-02-14T08:49:08.452Z,1.80
2019-02-14T08:51:37.617Z,2.40
2019-02-14T08:54:06.945Z,2.90
2019-02-14T08:56:37.721Z,3.30
2019-02-14T08:59:07.964Z,3.60
2019-02-14T09:01:37.091Z,3.90
2019-02-14T09:04:06.165Z,4.30
2019-02-14T09:06:35.285Z,4.60
2019-02-14T09:09:05.518Z,4.80
2019-02-14T09:11:34.616Z,5.20
2019-02-14T09:14:03.783Z,5.80
2019-02-14T09:16:32.881Z,6.40
2019-02-14T09:19:01.957Z,7.00
2019-02-14T09:21:31.387Z,7.60
2019-02-14T09:24:00.502Z,8.10
2019-02-14T09:26:29.679Z,8.70
2019-02-14T09:28:58.780Z,9.00
2019-02-14T09:31:28.894Z,8.90
2019-02-14T09:33:58.190Z,8.50
2019-02-14T09:36:28.350Z,7.90
2019-02-14T09:38:57.648Z,7.50
2019-02-14T09:41:26.747Z,7.30
2019-02-14T09:43:55.919Z,7.10
2019-02-14T09:46:25.086Z,6.80
2019-02-14T09:48:54.456Z,6.60
2019-02-14T09:51:23.872Z,6.40
2019-02-14T09:53:53.293Z,6.10
2019-02-14T09:56:22.401Z,5.60
2019-02-14T09:58:51.837Z,5.30
2019-02-14T10:01:22.860Z,4.90
2019-02-14T10:03:52.037Z,4.60
2019-02-14T10:06:22.429Z,4.50
2019-02-14T10:08:51.609Z,4.40
2019-02-14T10:11:20.790Z,4.20
2019-02-14T10:13:50.236Z,4.00
2019-02-14T10:16:19.352Z,4.00
2019-02-14T10:18:48.480Z,4.10
2019-02-14T10:21:17.624Z,4.10
2019-02-14T10:23:47.005Z,4.10
2019-02-14T10:26:16.814Z,4.10
2019-02-14T10:28:46.016Z,4.10
2019-02-14T10:31:16.854Z,4.10
2019-02-14T10:33:47.061Z,4.10
2019-02-14T10:36:16.312Z,4.10
2019-02-14T10:38:45.707Z,4.10
2019-02-14T10:41:14.832Z,4.20
2019-02-14T10:43:48.770Z,4.20
2019-02-14T10:46:14.783Z,4.20
2019-02-14T10:48:43.896Z,4.30
2019-02-14T10:51:13.016Z,4.30
2019-02-14T10:53:42.212Z,4.30
2019-02-14T10:56:11.325Z,4.20
2019-02-14T10:58:40.733Z,4.20
2019-02-14T11:01:10.185Z,4.20
2019-02-14T11:03:39.276Z,4.20
2019-02-14T11:06:08.769Z,4.20
2019-02-14T11:08:38.463Z,4.30
2019-02-14T11:11:07.821Z,4.30
2019-02-14T11:13:37.360Z,4.40
2019-02-14T11:16:07.204Z,4.40
2019-02-14T11:18:43.929Z,4.50
2019-02-14T11:21:07.809Z,4.60
2019-02-14T11:23:38.985Z,4.80
2019-02-14T11:26:08.755Z,5.10
2019-02-14T11:28:38.425Z,5.30
2019-02-14T11:31:07.518Z,5.40
2019-02-14T11:33:36.803Z,5.40
2019-02-14T11:36:06.534Z,5.40
2019-02-14T11:38:40.534Z,5.40
2019-02-14T11:41:07.355Z,5.60
2019-02-14T11:43:36.868Z,5.80
2019-02-14T11:46:07.001Z,6.00
2019-02-14T11:48:36.388Z,6.20
2019-02-14T11:51:05.872Z,6.50
2019-02-14T11:53:35.322Z,6.80
2019-02-14T11:56:04.437Z,7.00
2019-02-14T11:58:34.129Z,7.10
2019-02-14T12:01:03.578Z,7.30
2019-02-14T12:03:33.141Z,7.50
2019-02-14T12:06:02.268Z,7.60
2019-02-14T12:08:31.341Z,7.80
2019-02-14T12:11:00.727Z,7.90
2019-02-14T12:13:31.224Z,8.00
2019-02-14T12:16:00.304Z,8.00
2019-02-14T12:18:29.410Z,8.00
2019-02-14T12:20:58.581Z,8.10
2019-02-14T12:23:27.648Z,8.10
2019-02-14T12:25:57.112Z,8.10
2019-02-14T12:28:28.472Z,8.10
2019-02-14T12:30:58.443Z,8.20
2019-02-14T12:33:27.703Z,8.30
2019-02-14T12:35:57.243Z,8.30
2019-02-14T12:38:26.469Z,8.40
2019-02-14T12:40:55.532Z,8.40
2019-02-14T12:43:24.988Z,8.50
2019-02-14T12:45:54.468Z,8.60
2019-02-14T12:48:23.646Z,8.60
2019-02-14T12:50:52.748Z,8.60
2019-02-14T12:53:22.094Z,8.60
2019-02-14T12:55:51.150Z,8.60
2019-02-14T12:58:20.752Z,8.50
2019-02-14T13:00:50.819Z,8.40
2019-02-14T13:03:20.702Z,8.40
2019-02-14T13:05:52.189Z,8.30
2019-02-14T13:08:21.326Z,8.10
2019-02-14T13:10:50.441Z,8.00
2019-02-14T13:13:19.686Z,7.80
2019-02-14T13:15:48.896Z,7.70
2019-02-14T13:18:19.140Z,7.60
2019-02-14T13:20:48.537Z,7.50
2019-02-14T13:23:17.689Z,7.40
2019-02-14T13:25:46.822Z,7.30
2019-02-14T13:28:15.882Z,7.30
2019-02-14T13:30:45.007Z,7.30
2019-02-14T13:33:14.646Z,7.30
2019-02-14T13:35:43.867Z,7.40
2019-02-14T13:38:12.977Z,7.40
2019-02-14T13:40:42.811Z,7.50
2019-02-14T13:43:11.978Z,7.50
2019-02-14T13:45:41.065Z,7.50
2019-02-14T13:48:10.174Z,7.50
2019-02-14T13:50:40.173Z,7.40
2019-02-14T13:53:09.377Z,7.40
2019-02-14T13:55:38.735Z,7.40
2019-02-14T13:58:07.833Z,7.50
2019-02-14T14:00:37.583Z,7.60
2019-02-14T14:03:06.698Z,7.60
2019-02-14T14:05:36.237Z,7.60
2019-02-14T14:08:05.831Z,7.60
2019-02-14T14:10:35.192Z,7.60
2019-02-14T14:13:04.390Z,7.60
2019-02-14T14:15:33.493Z,7.60
2019-02-14T14:18:02.834Z,7.60
2019-02-14T14:20:32.205Z,7.60
2019-02-14T14:23:01.312Z,7.70
2019-02-14T14:25:31.964Z,7.70
2019-02-14T14:28:01.086Z,7.80
2019-02-14T14:30:30.257Z,7.80
2019-02-14T14:32:59.317Z,7.70
2019-02-14T14:35:28.505Z,7.70
2019-02-14T14:37:57.572Z,7.70
2019-02-14T14:40:26.956Z,7.70
2019-02-14T14:43:17.956Z,7.60
2019-02-14T14:46:05.033Z,7.50
2019-02-14T14:48:38.521Z,7.50
2019-02-14T14:51:07.708Z,7.50
2019-02-14T14:53:36.848Z,7.50
2019-02-14T14:56:06.627Z,7.40
2019-02-14T14:58:35.790Z,7.40
2019-02-14T15:01:05.617Z,7.40
2019-02-14T15:03:34.860Z,7.30
2019-02-14T15:06:04.043Z,7.30
2019-02-14T15:08:33.152Z,7.40
2019-02-14T15:11:02.685Z,7.40
2019-02-14T15:13:31.901Z,7.40
2019-02-14T15:16:00.980Z,7.60
2019-02-14T15:18:30.100Z,7.80
2019-02-14T15:20:59.544Z,7.90
2019-02-14T15:23:29.286Z,8.10
2019-02-14T15:25:58.934Z,8.20
2019-02-14T15:28:28.326Z,8.40
2019-02-14T15:30:57.582Z,8.40
2019-02-14T15:33:27.962Z,8.50
2019-02-14T15:35:57.522Z,8.50
2019-02-14T15:38:26.669Z,8.50
2019-02-14T15:40:55.776Z,8.40
2019-02-14T15:43:25.339Z,8.40
2019-02-14T15:45:54.416Z,8.30
2019-02-14T15:48:23.869Z,8.20
2019-02-14T15:50:54.436Z,8.10
2019-02-14T15:53:24.693Z,8.00
2019-02-14T15:55:54.161Z,7.90
2019-02-14T15:58:24.609Z,7.80
2019-02-14T16:00:54.383Z,7.70
2019-02-14T16:03:26.362Z,7.60
2019-02-14T16:05:55.519Z,7.60
2019-02-14T16:08:24.856Z,7.50
2019-02-14T16:10:55.928Z,7.50
2019-02-14T16:13:29.267Z,7.50
2019-02-14T16:15:58.934Z,7.50
2019-02-14T16:18:28.099Z,7.40
2019-02-14T16:20:58.022Z,7.40
2019-02-14T16:23:27.743Z,7.40
2019-02-14T16:25:57.977Z,7.40
2019-02-14T16:28:27.885Z,7.30
2019-02-14T16:30:57.180Z,7.30
2019-02-14T16:33:26.338Z,7.20
2019-02-14T16:35:55.880Z,7.10
2019-02-14T16:38:25.054Z,7.00
2019-02-14T16:40:54.168Z,7.00
2019-02-14T16:43:23.269Z,6.90
2019-02-14T16:45:52.361Z,6.80
2019-02-14T16:48:21.428Z,6.80
2019-02-14T16:50:50.512Z,6.70
2019-02-14T16:53:19.585Z,6.70
2019-02-14T16:55:48.984Z,6.70
2019-02-14T16:58:18.165Z,6.60
2019-02-14T17:00:47.755Z,6.50
2019-02-14T17:03:17.045Z,6.40
2019-02-14T17:05:46.208Z,6.30
2019-02-14T17:08:15.310Z,6.20
2019-02-14T17:10:44.378Z,6.10
2019-02-14T17:13:14.926Z,5.90
2019-02-14T17:15:44.261Z,5.70
2019-02-14T17:18:13.690Z,5.60
2019-02-14T17:20:43.032Z,5.50
2019-02-14T17:23:12.133Z,5.40
2019-02-14T17:25:41.236Z,5.40
2019-02-14T17:28:10.718Z,5.30
2019-02-14T17:30:40.087Z,5.20
2019-02-14T17:33:09.322Z,5.20
2019-02-14T17:35:38.497Z,5.10
2019-02-14T17:38:07.579Z,5.00
2019-02-14T17:40:45.769Z,5.00
2019-02-14T17:43:09.453Z,5.00
2019-02-14T17:45:39.081Z,4.90
2019-02-14T17:48:08.217Z,4.90
2019-02-14T17:50:37.321Z,4.90
2019-02-14T17:53:06.442Z,4.90
2019-02-14T17:55:35.593Z,4.90
2019-02-14T17:58:05.483Z,4.80
2019-02-14T18:00:34.624Z,4.80
2019-02-14T18:03:03.748Z,4.70
2019-02-14T18:05:34.650Z,4.70
2019-02-14T18:08:04.437Z,4.60
2019-02-14T18:10:33.571Z,4.60
2019-02-14T18:13:02.773Z,4.40
2019-02-14T18:15:32.228Z,4.40
2019-02-14T18:18:02.002Z,4.30
2019-02-14T18:20:31.086Z,4.30
2019-02-14T18:23:00.708Z,4.30
2019-02-14T18:25:29.877Z,4.20
2019-02-14T18:27:59.279Z,4.20
2019-02-14T18:30:28.413Z,4.20
2019-02-14T18:32:58.300Z,4.20
2019-02-14T18:35:27.768Z,4.20
2019-02-14T18:37:56.952Z,4.20
2019-02-14T18:40:26.766Z,4.20
2019-02-14T18:42:56.370Z,4.20
2019-02-14T18:45:25.729Z,4.20
2019-02-14T18:47:54.925Z,4.20
2019-02-14T18:50:24.178Z,4.10
2019-02-14T18:52:53.436Z,4.10
2019-02-14T18:55:22.522Z,4.10
2019-02-14T18:57:51.733Z,4.00
2019-02-14T19:00:20.884Z,4.00
2019-02-14T19:02:49.965Z,4.00
2019-02-14T19:05:19.127Z,3.90
2019-02-14T19:07:48.204Z,3.90
2019-02-14T19:10:17.459Z,3.80
2019-02-14T19:12:47.596Z,3.70
2019-02-14T19:15:16.736Z,3.70
2019-02-14T19:17:45.844Z,3.70
2019-02-14T19:20:15.198Z,3.70
2019-02-14T19:22:44.264Z,3.70
2019-02-14T19:25:14.054Z,3.70
2019-02-14T19:27:43.288Z,3.60
2019-02-14T19:30:12.716Z,3.60
2019-02-14T19:32:42.118Z,3.50
2019-02-14T19:35:11.344Z,3.50
2019-02-14T19:37:40.807Z,3.50
2019-02-14T19:40:10.056Z,3.40
2019-02-14T19:42:39.305Z,3.40
2019-02-14T19:45:09.137Z,3.30
2019-02-14T19:47:38.439Z,3.20
2019-02-14T19:50:08.743Z,3.10
2019-02-14T19:52:37.903Z,3.00
2019-02-14T19:55:07.410Z,3.00
2019-02-14T19:57:36.912Z,2.90
2019-02-14T20:00:07.603Z,2.80
2019-02-14T20:02:36.739Z,2.80
2019-02-14T20:05:06.775Z,2.80
2019-02-14T20:07:36.215Z,2.80
2019-02-14T20:10:05.806Z,2.90
2019-02-14T20:12:34.925Z,2.90
2019-02-14T20:15:04.377Z,2.90
2019-02-14T20:17:33.553Z,2.80
2019-02-14T20:20:02.673Z,2.80
2019-02-14T20:22:31.761Z,2.80
2019-02-14T20:25:00.827Z,2.70
2019-02-14T20:27:29.970Z,2.60
2019-02-14T20:29:59.177Z,2.60
2019-02-14T20:32:28.495Z,2.50
2019-02-14T20:34:57.947Z,2.50
2019-02-14T20:37:27.165Z,2.50
2019-02-14T20:39:56.397Z,2.40
2019-02-14T20:42:25.594Z,2.40
2019-02-14T20:44:54.772Z,2.40
2019-02-14T20:47:24.019Z,2.40
2019-02-14T20:49:53.576Z,2.40
2019-02-14T20:52:23.142Z,2.40
2019-02-14T20:54:52.358Z,2.30
2019-02-14T20:57:21.871Z,2.30
2019-02-14T20:59:51.082Z,2.20
2019-02-14T21:02:20.624Z,2.20
2019-02-14T21:04:49.833Z,2.20
2019-02-14T21:07:19.448Z,2.10
2019-02-14T21:09:48.651Z,2.10
2019-02-14T21:12:17.740Z,2.00
2019-02-14T21:14:46.929Z,2.00
2019-02-14T21:17:16.673Z,1.90
2019-02-14T21:19:45.837Z,1.90
2019-02-14T21:22:18.685Z,1.80
2019-02-14T21:24:46.442Z,1.70
2019-02-14T21:27:16.398Z,1.70
2019-02-14T21:29:45.951Z,1.70
2019-02-14T21:32:15.187Z,1.60
2019-02-14T21:34:44.638Z,1.50
2019-02-14T21:37:14.100Z,1.50
2019-02-14T21:39:43.238Z,1.50
2019-02-14T21:42:21.097Z,1.40
2019-02-14T21:44:43.590Z,1.40
2019-02-14T21:47:12.800Z,1.40
2019-02-14T21:49:42.044Z,1.30
2019-02-14T21:52:11.180Z,1.30
2019-02-14T21:54:40.556Z,1.30
2019-02-14T21:57:09.690Z,1.30
2019-02-14T21:59:38.843Z,1.20
2019-02-14T22:02:08.485Z,1.20
2019-02-14T22:04:38.103Z,1.20
2019-02-14T22:07:07.348Z,1.10
2019-02-14T22:09:36.854Z,1.10
2019-02-14T22:12:06.249Z,1.10
2019-02-14T22:14:35.435Z,1.10
2019-02-14T22:17:05.025Z,1.10
2019-02-14T22:19:34.503Z,1.00
2019-02-14T22:22:03.870Z,1.10
2019-02-14T22:24:33.056Z,1.00
2019-02-14T22:27:02.449Z,1.00
2019-02-14T22:29:32.229Z,1.00
2019-02-14T22:32:01.511Z,1.00
2019-02-14T22:34:31.413Z,1.00
2019-02-14T22:37:00.621Z,1.00
2019-02-14T22:39:29.734Z,1.10
2019-02-14T22:41:58.813Z,1.10
2019-02-14T22:44:28.001Z,1.10
2019-02-14T22:46:57.239Z,1.20
2019-02-14T22:49:26.385Z,1.20
2019-02-14T22:51:55.465Z,1.20
2019-02-14T22:54:25.013Z,1.20
2019-02-14T22:56:54.140Z,1.10
2019-02-14T22:59:23.697Z,1.10
2019-02-14T23:01:52.891Z,1.00
2019-02-14T23:04:22.240Z,0.90
2019-02-14T23:06:51.580Z,0.90
2019-02-14T23:09:21.217Z,1.00
2019-02-14T23:11:50.504Z,0.90
2019-02-14T23:14:19.871Z,0.90
2019-02-14T23:16:49.370Z,0.90
2019-02-14T23:19:18.491Z,0.80
2019-02-14T23:21:48.410Z,0.80
2019-02-14T23:24:17.605Z,0.80
2019-02-14T23:26:46.746Z,0.80
2019-02-14T23:29:16.004Z,0.80
2019-02-14T23:31:45.108Z,0.90
2019-02-14T23:34:14.767Z,0.90
2019-02-14T23:36:44.241Z,0.90
2019-02-14T23:39:13.379Z,0.80
2019-02-14T23:41:42.486Z,0.80
2019-02-14T23:44:12.634Z,0.80
2019-02-14T23:46:41.795Z,0.80
2019-02-14T23:49:10.925Z,0.70
2019-02-14T23:51:41.455Z,0.70
2019-02-14T23:54:12.608Z,0.60
2019-02-14T23:56:43.536Z,0.60
2019-02-14T23:59:12.612Z,0.50
